»·PEaware :: N286WF L45-L70

N286WF :: L45-L70

FLIGHT INFORMATION

Flight Status: Arrived
Operator: Privately registered:
United States
More flights under this callsign
Pilot: Frank W. (16848)
Aircraft: Unknown
(P28U)
More flights by this aircraft type
Origin: L45 Bakersfield Mun
United States
Destination: L70 Agua Dulce
United States
More flights between these airports :: More routes between these airports
Route: GMN LHS BOGET
File this flight plan on PilotEdge
Remarks:
Altitude:
(Current/Filed)
6,500ft
Speed:
(Current/Filed)
140kts
Departed: 26-Aug-18 05:21 PM
Arrived: 26-Aug-18 05:58 PM
Distance/Time
Traveled:
60nm/0:37
Distance/Time
To Go:
Arrived

Flight Plot

Page will automatically refresh every two minutes.

Flight plan parsing failed; only flown route is shown


Map Options




Map Legend


Flown Route
Filed Route
Departure Airport
Arrival Airport
Navaid (VOR, NDB)
Fix

Horizontal Profiles

Position Reports

Time Latitude Longitude Heading Altitude Ground
Speed
26-Aug-18 17:10 35.325703 -118.997776 89 377ft 0kts
26-Aug-18 17:11 35.325703 -118.997776 89 377ft 0kts
26-Aug-18 17:12 35.325703 -118.997776 89 377ft 0kts
26-Aug-18 17:13 35.325703 -118.997776 89 377ft 0kts
26-Aug-18 17:14 35.325703 -118.997776 89 377ft 0kts
26-Aug-18 17:15 35.325703 -118.997776 89 377ft 0kts
26-Aug-18 17:16 35.325710 -118.997604 94 377ft 2kts
26-Aug-18 17:17 35.323603 -118.996986 174 377ft 14kts
26-Aug-18 17:18 35.320789 -118.996383 175 377ft 13kts
26-Aug-18 17:19 35.319448 -118.996429 74 377ft 0kts
26-Aug-18 17:20 35.319448 -118.996428 74 377ft 0kts
26-Aug-18 17:21 35.319417 -118.996034 86 377ft 7kts
26-Aug-18 17:22 35.320745 -118.995585 354 377ft 48kts
26-Aug-18 17:24 35.330918 -119.011403 180 2840ft 115kts
26-Aug-18 17:25 35.304877 -119.007749 165 4522ft 104kts
26-Aug-18 17:26 35.277316 -118.997006 164 5793ft 131kts
26-Aug-18 17:27 35.238219 -118.983713 171 6370ft 165kts
26-Aug-18 17:28 35.206459 -118.973712 166 6596ft 152kts
26-Aug-18 17:29 35.167762 -118.961976 170 6381ft 163kts
26-Aug-18 17:30 35.128128 -118.950517 169 6514ft 159kts
26-Aug-18 17:31 35.088734 -118.938876 169 6557ft 160kts
26-Aug-18 17:32 35.049188 -118.926926 169 6624ft 161kts
26-Aug-18 17:33 35.009570 -118.914665 169 6648ft 162kts
26-Aug-18 17:34 34.969858 -118.902196 171 6654ft 162kts
26-Aug-18 17:35 34.929281 -118.893728 179 6656ft 161kts
26-Aug-18 17:36 34.889501 -118.885371 172 6668ft 163kts
26-Aug-18 17:37 34.849508 -118.873814 171 6659ft 164kts
26-Aug-18 17:38 34.809749 -118.861320 162 6701ft 168kts
26-Aug-18 17:38 34.809749 -118.861320 162 6701ft 168kts
26-Aug-18 17:39 34.786480 -118.817429 116 6737ft 169kts
26-Aug-18 17:41 34.763383 -118.763593 117 6715ft 177kts
26-Aug-18 17:42 34.742980 -118.715844 118 6659ft 176kts
26-Aug-18 17:42 34.726326 -118.676827 120 6759ft 175kts
26-Aug-18 17:43 34.705751 -118.628420 121 6553ft 177kts
26-Aug-18 17:44 34.685786 -118.581591 123 6576ft 168kts
26-Aug-18 17:45 34.664326 -118.539215 128 6617ft 162kts
26-Aug-18 17:46 34.642539 -118.497053 127 6636ft 161kts
26-Aug-18 17:47 34.620978 -118.455439 128 6633ft 161kts
26-Aug-18 17:48 34.599285 -118.413597 128 6626ft 162kts
26-Aug-18 17:49 34.577389 -118.371389 128 6594ft 165kts
26-Aug-18 17:50 34.549106 -118.351907 221 6256ft 131kts
26-Aug-18 17:51 34.529275 -118.375654 221 4891ft 104kts
26-Aug-18 17:52 34.518534 -118.387425 211 3917ft 99kts
26-Aug-18 17:53 34.502290 -118.404456 246 3751ft 90kts
26-Aug-18 17:55 34.503944 -118.367717 97 4358ft 125kts
26-Aug-18 17:56 34.504743 -118.332118 90 3254ft 117kts
26-Aug-18 17:57 34.519682 -118.303618 111 3366ft 100kts
26-Aug-18 17:59 34.505403 -118.309369 141 2618ft 0kts
26-Aug-18 18:00 34.504978 -118.309549 143 2628ft 0kts
26-Aug-18 18:01 34.504978 -118.309550 143 2628ft 0kts
26-Aug-18 18:02 34.504978 -118.309550 143 2628ft 0kts
26-Aug-18 18:03 34.504978 -118.309550 143 2628ft 0kts
26-Aug-18 18:04 34.504978 -118.309550 143 2628ft 0kts
26-Aug-18 18:05 34.504978 -118.309550 143 2628ft 0kts
26-Aug-18 18:06 34.504978 -118.309550 143 2628ft 0kts
26-Aug-18 18:07 34.504978 -118.309550 143 2628ft 0kts
26-Aug-18 18:08 34.504978 -118.309550 143 2628ft 0kts
26-Aug-18 18:09 34.504978 -118.309550 143 2628ft 0kts
26-Aug-18 18:09 34.504978 -118.309550 143 2628ft 0kts
26-Aug-18 18:10 34.504978 -118.309550 143 2628ft 0kts
26-Aug-18 18:11 34.504978 -118.309550 143 2628ft 0kts
26-Aug-18 18:12 34.504978 -118.309550 143 2628ft 0kts
26-Aug-18 18:13 34.504978 -118.309550 143 2628ft 0kts
26-Aug-18 18:14 34.504978 -118.309550 143 2628ft 0kts

Navigation Log

Ident Type
Flight plan parsing failed, navigation log unavailable